Time;durP1;ratioP1;P1;durP2;ratioP2;P2;SDS_P1;SDS_P2;PMS_P1;PMS_P2;Temp;Humidity;BMP_temperature;BMP_pressure;BME280_temperature;BME280_humidity;BME280_pressure;Samples;Min_cycle;Max_cycle;Signal;HPM_P1;HPM_P2
2021/01/29 00:02:19;;;;;;;34.07;24.27;;;;;;;;;;4995575;28;20387;-66
2021/01/29 00:04:45;;;;;;;31.93;21.97;;;;;;;;;;4996015;28;20376;-66
2021/01/29 00:07:12;;;;;;;35.63;23.47;;;;;;;;;;4995540;28;20030;-66
2021/01/29 00:09:38;;;;;;;31.83;22.80;;;;;;;;;;4995788;28;20105;-66
2021/01/29 00:12:04;;;;;;;32.43;23.70;;;;;;;;;;4995651;28;20110;-66
2021/01/29 00:14:30;;;;;;;31.83;22.20;;;;;;;;;;4995432;28;20073;-66
2021/01/29 00:16:57;;;;;;;30.10;21.87;;;;;;;;;;4995381;28;20037;-66
2021/01/29 00:19:23;;;;;;;34.87;22.27;;;;;;;;;;4995603;28;20034;-66
2021/01/29 00:21:49;;;;;;;32.70;20.90;;;;;;;;;;4995461;28;20034;-67
2021/01/29 00:24:15;;;;;;;31.13;20.50;;;;;;;;;;4994996;28;20026;-66
2021/01/29 00:26:41;;;;;;;29.73;20.40;;;;;;;;;;4995022;28;20027;-66
2021/01/29 00:29:07;;;;;;;33.40;20.60;;;;;;;;;;4995019;28;20018;-66
2021/01/29 00:31:33;;;;;;;30.67;22.43;;;;;;;;;;4995047;28;20034;-66
2021/01/29 00:33:59;;;;;;;29.80;21.13;;;;;;;;;;4995198;28;20033;-66
2021/01/29 00:36:25;;;;;;;30.97;21.57;;;;;;;;;;4994832;28;20030;-66
2021/01/29 00:38:51;;;;;;;30.50;19.73;;;;;;;;;;4994825;28;20491;-66
2021/01/29 00:41:21;;;;;;;28.07;20.23;;;;;;;;;;4995016;28;20022;-66
2021/01/29 00:43:47;;;;;;;29.47;20.20;;;;;;;;;;4994998;28;20113;-66
2021/01/29 00:46:13;;;;;;;24.57;19.07;;;;;;;;;;4994700;28;20032;-66
2021/01/29 00:48:39;;;;;;;30.07;20.70;;;;;;;;;;4994584;28;20030;-66
2021/01/29 00:51:05;;;;;;;26.07;19.70;;;;;;;;;;4994720;28;20049;-66
2021/01/29 00:53:31;;;;;;;27.53;19.47;;;;;;;;;;4994716;28;20030;-66
2021/01/29 00:55:57;;;;;;;30.57;20.17;;;;;;;;;;4994744;28;20080;-66
2021/01/29 00:58:23;;;;;;;27.07;19.63;;;;;;;;;;4994534;28;20097;-66
2021/01/29 01:00:49;;;;;;;27.53;19.57;;;;;;;;;;4994435;28;20391;-67
2021/01/29 01:03:15;;;;;;;28.50;20.47;;;;;;;;;;4994434;28;20046;-66
2021/01/29 01:05:43;;;;;;;26.57;18.80;;;;;;;;;;4994611;28;20097;-66
2021/01/29 01:08:10;;;;;;;28.87;19.73;;;;;;;;;;4994161;28;20066;-66
2021/01/29 01:10:36;;;;;;;30.23;20.10;;;;;;;;;;4993439;28;20081;-66
2021/01/29 01:13:02;;;;;;;27.63;20.23;;;;;;;;;;4994374;28;20022;-66
2021/01/29 01:15:28;;;;;;;25.73;18.67;;;;;;;;;;4994535;28;20034;-66
2021/01/29 01:17:56;;;;;;;27.93;21.63;;;;;;;;;;4994426;28;20026;-66
2021/01/29 01:20:24;;;;;;;27.87;20.93;;;;;;;;;;4993788;28;20064;-66
2021/01/29 01:22:50;;;;;;;34.77;21.73;;;;;;;;;;4994340;28;20037;-66
2021/01/29 01:25:16;;;;;;;26.87;20.07;;;;;;;;;;4994314;28;20029;-67
2021/01/29 01:27:43;;;;;;;28.63;20.57;;;;;;;;;;4994286;28;20491;-71
2021/01/29 01:30:14;;;;;;;35.20;21.60;;;;;;;;;;4994235;28;20030;-66
2021/01/29 01:32:41;;;;;;;29.77;20.63;;;;;;;;;;4994216;28;20030;-66
2021/01/29 01:35:07;;;;;;;27.80;20.60;;;;;;;;;;4994125;28;20402;-66
2021/01/29 01:37:33;;;;;;;29.77;20.17;;;;;;;;;;4994178;28;20022;-66
2021/01/29 01:39:59;;;;;;;30.77;20.03;;;;;;;;;;4994310;28;20038;-66
2021/01/29 01:42:25;;;;;;;27.73;20.17;;;;;;;;;;4993894;28;20035;-66
2021/01/29 01:44:51;;;;;;;30.87;20.50;;;;;;;;;;4993511;28;20033;-66
2021/01/29 01:47:17;;;;;;;25.90;19.77;;;;;;;;;;4993485;28;20434;-66
2021/01/29 01:49:44;;;;;;;27.97;19.87;;;;;;;;;;4993662;28;20030;-66
2021/01/29 01:52:13;;;;;;;28.00;20.27;;;;;;;;;;4993915;28;20427;-66
2021/01/29 01:54:59;;;;;;;25.47;19.03;;;;;;;;;;4994000;28;20076;-66
2021/01/29 01:57:26;;;;;;;29.17;21.10;;;;;;;;;;4993604;28;20081;-66
2021/01/29 01:59:59;;;;;;;24.53;19.17;;;;;;;;;;4990199;28;20076;-67
2021/01/29 02:02:27;;;;;;;30.13;19.33;;;;;;;;;;4991122;28;20117;-66
2021/01/29 02:04:54;;;;;;;27.90;20.00;;;;;;;;;;4992281;28;20102;-66
2021/01/29 02:07:28;;;;;;;27.40;19.90;;;;;;;;;;4993316;28;20399;-66
2021/01/29 02:09:55;;;;;;;34.37;21.87;;;;;;;;;;4993566;28;20026;-66
2021/01/29 02:12:21;;;;;;;33.47;21.80;;;;;;;;;;4993621;28;20030;-66
2021/01/29 02:14:47;;;;;;;27.93;21.23;;;;;;;;;;4993353;28;20027;-66
2021/01/29 02:17:32;;;;;;;31.67;21.60;;;;;;;;;;4993298;28;20093;-66
2021/01/29 02:20:20;;;;;;;35.77;20.00;;;;;;;;;;4993233;28;20054;-66
2021/01/29 02:22:46;;;;;;;29.97;21.50;;;;;;;;;;4996536;28;20034;-66
2021/01/29 02:25:31;;;;;;;31.53;20.87;;;;;;;;;;4997493;28;20368;-66
2021/01/29 02:28:00;;;;;;;34.77;20.33;;;;;;;;;;4997074;28;20022;-66
2021/01/29 02:30:29;;;;;;;30.00;20.93;;;;;;;;;;4997300;28;20483;-66
2021/01/29 02:33:13;;;;;;;28.27;18.83;;;;;;;;;;4997007;28;20353;-66
2021/01/29 02:36:03;;;;;;;26.77;18.37;;;;;;;;;;4996683;28;20426;-67
2021/01/29 02:38:48;;;;;;;28.27;18.50;;;;;;;;;;4997041;28;20101;-66
2021/01/29 02:41:32;;;;;;;29.57;18.83;;;;;;;;;;4997051;28;20056;-66
2021/01/29 02:44:17;;;;;;;28.00;18.13;;;;;;;;;;4996872;28;20418;-66
2021/01/29 02:47:03;;;;;;;27.77;18.17;;;;;;;;;;4996854;28;20073;-66
2021/01/29 02:49:35;;;;;;;25.33;17.60;;;;;;;;;;4992995;28;20514;-66
2021/01/29 02:52:17;;;;;;;24.50;18.13;;;;;;;;;;4996648;28;20038;-66
2021/01/29 02:54:46;;;;;;;27.10;18.23;;;;;;;;;;4997264;28;20018;-66
2021/01/29 02:57:15;;;;;;;26.80;17.67;;;;;;;;;;4996508;28;20461;-66
2021/01/29 02:59:46;;;;;;;23.10;17.30;;;;;;;;;;4996870;28;20429;-66
2021/01/29 03:02:18;;;;;;;25.30;18.17;;;;;;;;;;4996733;28;20025;-66
2021/01/29 03:04:44;;;;;;;;;;;;;;;;;;4997505;28;20077;-66
2021/01/29 03:07:13;;;;;;;24.93;17.47;;;;;;;;;;4996789;28;19906;-66
2021/01/29 03:09:49;;;;;;;24.63;16.83;;;;;;;;;;4996536;28;20056;-66
2021/01/29 03:12:19;;;;;;;24.50;16.43;;;;;;;;;;4996672;28;20041;-66
2021/01/29 03:14:49;;;;;;;20.60;16.17;;;;;;;;;;4996703;28;20029;-66
2021/01/29 03:17:15;;;;;;;21.17;16.20;;;;;;;;;;4996376;28;20034;-66
2021/01/29 03:19:48;;;;;;;23.57;16.53;;;;;;;;;;4996296;28;20031;-66
2021/01/29 03:22:14;;;;;;;;;;;;;;;;;;4996890;28;20030;-66
2021/01/29 03:25:07;;;;;;;27.27;17.00;;;;;;;;;;4995044;28;19937;-67
2021/01/29 03:27:46;;;;;;;26.83;19.83;;;;;;;;;;4992476;28;20125;-67
2021/01/29 03:30:14;;;;;;;27.43;20.40;;;;;;;;;;4993536;28;20289;-66
2021/01/29 03:32:41;;;;;;;28.00;18.73;;;;;;;;;;4994031;28;20387;-66
2021/01/29 03:35:26;;;;;;;30.03;20.40;;;;;;;;;;4995966;28;20030;-66
2021/01/29 03:38:04;;;;;;;29.60;19.50;;;;;;;;;;4996134;28;20406;-66
2021/01/29 03:40:30;;;;;;;28.90;20.23;;;;;;;;;;4995904;28;20478;-66
2021/01/29 03:43:03;;;;;;;33.33;20.37;;;;;;;;;;4995605;28;20368;-66
2021/01/29 03:45:35;;;;;;;28.75;20.80;;;;;;;;;;4996082;28;20364;-66
2021/01/29 03:48:17;;;;;;;30.98;19.70;;;;;;;;;;4995936;28;20030;-66
2021/01/29 03:50:52;;;;;;;31.20;20.20;;;;;;;;;;4995839;28;20097;-67
2021/01/29 03:53:31;;;;;;;32.37;21.17;;;;;;;;;;4995600;28;20463;-66
2021/01/29 03:56:07;;;;;;;26.37;19.07;;;;;;;;;;4995704;28;20109;-66
2021/01/29 03:58:54;;;;;;;27.33;20.07;;;;;;;;;;4995563;28;20022;-66
2021/01/29 04:01:24;;;;;;;26.57;19.60;;;;;;;;;;4995663;28;20034;-67
2021/01/29 04:04:28;;;;;;;31.70;20.90;;;;;;;;;;4995513;28;20022;-67
2021/01/29 04:06:58;;;;;;;30.57;20.40;;;;;;;;;;4973879;28;20037;-66
2021/01/29 04:09:43;;;;;;;30.50;20.90;;;;;;;;;;4973944;28;20038;-67
2021/01/29 04:12:10;;;;;;;32.43;21.00;;;;;;;;;;4987371;28;20050;-66
2021/01/29 04:14:36;;;;;;;27.53;20.67;;;;;;;;;;4995134;28;20033;-66
2021/01/29 04:17:06;;;;;;;28.70;20.37;;;;;;;;;;4995402;28;20033;-66
2021/01/29 04:19:34;;;;;;;30.50;21.67;;;;;;;;;;4995487;28;20034;-66
2021/01/29 04:22:10;;;;;;;29.10;20.90;;;;;;;;;;4995183;28;20061;-66
2021/01/29 04:24:39;;;;;;;29.10;21.20;;;;;;;;;;4995024;28;20537;-66
2021/01/29 04:27:11;;;;;;;30.97;21.07;;;;;;;;;;4995093;28;20045;-66
2021/01/29 04:29:39;;;;;;;29.02;21.02;;;;;;;;;;4995145;28;20026;-66
2021/01/29 04:32:09;;;;;;;26.43;19.30;;;;;;;;;;4994821;28;20042;-66
2021/01/29 04:34:37;;;;;;;28.83;20.47;;;;;;;;;;4994859;28;20033;-66
2021/01/29 04:37:06;;;;;;;29.23;20.60;;;;;;;;;;4994990;28;20037;-66
2021/01/29 04:39:34;;;;;;;28.30;19.63;;;;;;;;;;4994900;28;20030;-66
2021/01/29 04:42:00;;;;;;;31.37;20.47;;;;;;;;;;4994479;28;20030;-67
2021/01/29 04:44:38;;;;;;;30.47;20.23;;;;;;;;;;4994757;28;20045;-66
2021/01/29 04:47:30;;;;;;;28.13;20.03;;;;;;;;;;4994797;28;20105;-66
2021/01/29 04:50:06;;;;;;;29.73;19.87;;;;;;;;;;4993714;28;20042;-66
2021/01/29 04:52:32;;;;;;;30.57;18.73;;;;;;;;;;4994752;28;20073;-66
2021/01/29 04:54:58;;;;;;;29.33;19.87;;;;;;;;;;4994523;28;20529;-67
2021/01/29 04:57:27;;;;;;;24.13;18.60;;;;;;;;;;4994722;28;20109;-66
2021/01/29 05:00:10;;;;;;;25.67;19.53;;;;;;;;;;4995002;28;20378;-66
2021/01/29 05:02:43;;;;;;;26.42;18.02;;;;;;;;;;4994689;28;20031;-66
2021/01/29 05:05:09;;;;;;;25.73;18.90;;;;;;;;;;4994506;28;20033;-66
2021/01/29 05:08:05;;;;;;;27.50;19.47;;;;;;;;;;4994404;28;20076;-66
2021/01/29 05:10:50;;;;;;;27.77;20.50;;;;;;;;;;4975533;28;20054;-66
2021/01/29 05:13:34;;;;;;;28.17;18.00;;;;;;;;;;4994521;28;20125;-66
2021/01/29 05:16:10;;;;;;;33.67;19.20;;;;;;;;;;4994003;28;20073;-66
2021/01/29 05:18:41;;;;;;;27.23;19.17;;;;;;;;;;4994195;28;20406;-66
2021/01/29 05:21:24;;;;;;;25.37;18.87;;;;;;;;;;4993881;28;20532;-66
2021/01/29 05:23:53;;;;;;;25.25;18.30;;;;;;;;;;4994196;28;20034;-66
2021/01/29 05:26:28;;;;;;;26.93;18.77;;;;;;;;;;4994088;28;20027;-66
2021/01/29 05:29:00;;;;;;;26.07;19.37;;;;;;;;;;4994210;28;20068;-66
2021/01/29 05:31:31;;;;;;;26.90;18.67;;;;;;;;;;4993768;28;20042;-66
2021/01/29 05:34:16;;;;;;;28.53;20.40;;;;;;;;;;4994080;28;20109;-66
2021/01/29 05:37:00;;;;;;;27.97;20.07;;;;;;;;;;4993801;28;20487;-66
2021/01/29 05:39:45;;;;;;;29.33;20.67;;;;;;;;;;4993610;28;20080;-66
2021/01/29 05:42:11;;;;;;;29.60;19.83;;;;;;;;;;4993985;28;20038;-66
2021/01/29 05:44:56;;;;;;;31.13;21.90;;;;;;;;;;4993993;28;20068;-66
2021/01/29 05:47:34;;;;;;;28.03;19.87;;;;;;;;;;4994049;28;20025;-66
2021/01/29 05:50:19;;;;;;;32.33;20.00;;;;;;;;;;4993574;28;20045;-66
2021/01/29 05:53:03;;;;;;;27.50;19.67;;;;;;;;;;4993788;28;20039;-66
2021/01/29 05:55:38;;;;;;;31.87;19.93;;;;;;;;;;4993679;28;20054;-66
2021/01/29 05:58:12;;;;;;;35.17;21.60;;;;;;;;;;4993493;28;20032;-66
2021/01/29 06:00:47;;;;;;;31.67;21.43;;;;;;;;;;4993692;28;20474;-66
2021/01/29 06:03:16;;;;;;;30.57;21.17;;;;;;;;;;4993821;28;20026;-66
2021/01/29 06:05:48;;;;;;;30.03;21.00;;;;;;;;;;4993950;28;20061;-66
2021/01/29 06:08:33;;;;;;;29.27;20.58;;;;;;;;;;4993635;28;20030;-66
2021/01/29 06:11:08;;;;;;;26.53;19.57;;;;;;;;;;4993603;28;20225;-66
2021/01/29 06:13:40;;;;;;;23.60;18.43;;;;;;;;;;4993586;28;20036;-66
2021/01/29 06:16:24;;;;;;;24.20;17.60;;;;;;;;;;4993685;28;20574;-66
2021/01/29 06:18:56;;;;;;;23.80;18.20;;;;;;;;;;4993536;28;20038;-66
2021/01/29 06:21:41;;;;;;;23.63;17.10;;;;;;;;;;4993295;28;20043;-66
2021/01/29 06:24:26;;;;;;;23.67;17.70;;;;;;;;;;4993451;28;20037;-66
2021/01/29 06:26:52;;;;;;;23.97;17.93;;;;;;;;;;4993399;28;20062;-66
2021/01/29 06:29:35;;;;;;;26.00;19.53;;;;;;;;;;4993470;28;20059;-66
2021/01/29 06:32:20;;;;;;;23.30;18.70;;;;;;;;;;4993817;28;20042;-66
2021/01/29 06:34:55;;;;;;;23.63;17.70;;;;;;;;;;4993936;28;20030;-66
2021/01/29 06:37:21;;;;;;;28.43;18.43;;;;;;;;;;4993561;28;20026;-66
2021/01/29 06:39:47;;;;;;;25.17;17.17;;;;;;;;;;4993154;28;20077;-66
2021/01/29 06:42:25;;;;;;;26.80;17.53;;;;;;;;;;4993543;28;20352;-66
2021/01/29 06:45:00;;;;;;;24.20;17.63;;;;;;;;;;4993208;28;20050;-66
2021/01/29 06:47:45;;;;;;;24.87;16.90;;;;;;;;;;4993165;28;20022;-66
2021/01/29 06:50:30;;;;;;;24.17;16.27;;;;;;;;;;4991787;28;20038;-67
2021/01/29 06:53:05;;;;;;;24.50;17.83;;;;;;;;;;4990646;28;20038;-66
2021/01/29 06:55:34;;;;;;;24.93;16.97;;;;;;;;;;4991400;28;20031;-66
2021/01/29 06:58:04;;;;;;;23.47;17.03;;;;;;;;;;4993313;28;20038;-66
2021/01/29 07:00:30;;;;;;;24.63;17.30;;;;;;;;;;4993266;28;20505;-66
2021/01/29 07:03:12;;;;;;;22.67;16.70;;;;;;;;;;4993275;28;20030;-66
2021/01/29 07:05:56;;;;;;;27.93;18.80;;;;;;;;;;4993246;28;20030;-66
2021/01/29 07:08:45;;;;;;;27.27;19.87;;;;;;;;;;4994146;28;20057;-66
2021/01/29 07:11:22;;;;;;;28.67;21.10;;;;;;;;;;4986055;28;20050;-66
2021/01/29 07:14:04;;;;;;;31.57;21.17;;;;;;;;;;4996486;28;20470;-66
2021/01/29 07:16:30;;;;;;;30.70;21.30;;;;;;;;;;4996295;28;20076;-71
2021/01/29 07:19:14;;;;;;;31.50;21.77;;;;;;;;;;4996332;28;20026;-66
2021/01/29 07:21:59;;;;;;;30.53;21.20;;;;;;;;;;4994402;28;20395;-68
2021/01/29 07:24:31;;;;;;;30.47;20.93;;;;;;;;;;4993051;28;20019;-69
2021/01/29 07:27:09;;;;;;;30.83;21.43;;;;;;;;;;4993327;28;20034;-67
2021/01/29 07:29:38;;;;;;;34.17;22.27;;;;;;;;;;4994999;28;20041;-68
2021/01/29 07:32:07;;;;;;;28.63;22.07;;;;;;;;;;4995613;28;20169;-70
2021/01/29 07:34:36;;;;;;;29.17;22.43;;;;;;;;;;4995840;28;20034;-68
2021/01/29 07:37:05;;;;;;;34.53;21.87;;;;;;;;;;4995463;28;20070;-67
2021/01/29 07:39:50;;;;;;;30.77;21.50;;;;;;;;;;4995397;28;20030;-67
2021/01/29 07:42:34;;;;;;;32.63;22.60;;;;;;;;;;4995221;28;20022;-67
2021/01/29 07:45:19;;;;;;;32.57;21.37;;;;;;;;;;4995098;28;20407;-69
2021/01/29 07:47:55;;;;;;;32.70;22.80;;;;;;;;;;4995460;28;20022;-68
2021/01/29 07:50:29;;;;;;;33.63;22.03;;;;;;;;;;4994952;28;20045;-69
2021/01/29 07:53:01;;;;;;;32.53;22.40;;;;;;;;;;4994991;28;20101;-68
2021/01/29 07:55:28;;;;;;;32.08;22.17;;;;;;;;;;4995090;28;20336;-69
2021/01/29 07:58:10;;;;;;;34.70;23.37;;;;;;;;;;4994872;28;20049;-68
2021/01/29 08:00:45;;;;;;;36.63;25.17;;;;;;;;;;4995071;28;20560;-68
2021/01/29 08:03:26;;;;;;;34.40;23.77;;;;;;;;;;4994876;28;20018;-68
2021/01/29 08:06:04;;;;;;;32.63;22.77;;;;;;;;;;4994993;28;20037;-68
2021/01/29 08:08:33;;;;;;;34.87;21.73;;;;;;;;;;4994624;28;20515;-68
2021/01/29 08:11:01;;;;;;;32.60;20.10;;;;;;;;;;4995008;28;20084;-67
2021/01/29 08:13:27;;;;;;;28.87;20.60;;;;;;;;;;4995176;28;20430;-68
2021/01/29 08:15:56;;;;;;;29.23;19.50;;;;;;;;;;4994586;28;20030;-68
2021/01/29 08:18:41;;;;;;;23.47;17.47;;;;;;;;;;4994764;28;20015;-68
2021/01/29 08:21:07;;;;;;;28.27;17.87;;;;;;;;;;4994630;28;20133;-68
2021/01/29 08:23:51;;;;;;;27.47;18.33;;;;;;;;;;4994364;28;20034;-68
2021/01/29 08:26:23;;;;;;;25.80;18.20;;;;;;;;;;4994800;28;20034;-68
2021/01/29 08:29:04;;;;;;;24.00;17.50;;;;;;;;;;4993409;28;20038;-68
2021/01/29 08:31:33;;;;;;;30.60;17.10;;;;;;;;;;4992188;28;20387;-68
2021/01/29 08:33:59;;;;;;;27.60;18.40;;;;;;;;;;4993349;28;20045;-69
2021/01/29 08:36:28;;;;;;;26.73;20.63;;;;;;;;;;4994827;28;20033;-69
2021/01/29 08:38:54;;;;;;;30.73;20.93;;;;;;;;;;4994594;28;20018;-68
2021/01/29 08:41:54;;;;;;;35.53;20.57;;;;;;;;;;4994768;28;20049;-69
2021/01/29 08:44:52;;;;;;;29.50;17.87;;;;;;;;;;4983120;28;20121;-68
2021/01/29 08:47:23;;;;;;;29.63;19.47;;;;;;;;;;4982699;28;20399;-69
2021/01/29 08:49:49;;;;;;;32.20;23.47;;;;;;;;;;4994481;28;20474;-69
2021/01/29 08:52:24;;;;;;;30.57;21.87;;;;;;;;;;4994241;28;20030;-69
2021/01/29 08:55:04;;;;;;;32.43;22.80;;;;;;;;;;4994280;28;20085;-69
2021/01/29 08:57:33;;;;;;;32.60;23.23;;;;;;;;;;4993920;28;20029;-69
2021/01/29 09:00:00;;;;;;;35.53;23.00;;;;;;;;;;4994002;28;20026;-68
2021/01/29 09:02:45;;;;;;;35.70;23.80;;;;;;;;;;4994282;28;20056;-67
2021/01/29 09:05:12;;;;;;;34.40;24.17;;;;;;;;;;4994435;28;20026;-67
2021/01/29 09:07:41;;;;;;;34.70;24.73;;;;;;;;;;4994478;28;20448;-68
2021/01/29 09:10:10;;;;;;;32.27;23.47;;;;;;;;;;4994021;28;20026;-67
2021/01/29 09:12:36;;;;;;;37.30;24.40;;;;;;;;;;4994129;28;20042;-67
2021/01/29 09:15:25;;;;;;;32.00;24.17;;;;;;;;;;4994225;28;20031;-68
2021/01/29 09:17:51;;;;;;;40.77;26.53;;;;;;;;;;4994391;28;20031;-67
2021/01/29 09:20:22;;;;;;;37.73;26.80;;;;;;;;;;4993941;28;20089;-68
2021/01/29 09:23:10;;;;;;;46.00;29.80;;;;;;;;;;4994211;28;20065;-68
2021/01/29 09:25:58;;;;;;;45.90;31.23;;;;;;;;;;4994100;28;20019;-68
2021/01/29 09:28:33;;;;;;;46.30;32.70;;;;;;;;;;4993915;28;20030;-68
2021/01/29 09:31:03;;;;;;;45.93;32.60;;;;;;;;;;4993421;28;20402;-68
2021/01/29 09:33:38;;;;;;;47.63;32.87;;;;;;;;;;4993875;28;20073;-68
2021/01/29 09:36:11;;;;;;;45.57;31.90;;;;;;;;;;4993955;28;20032;-68
2021/01/29 09:38:37;;;;;;;;;;;;;;;;;;4994316;28;20035;-68
2021/01/29 09:41:19;;;;;;;41.53;29.40;;;;;;;;;;4994046;28;19912;-68
2021/01/29 09:44:05;;;;;;;36.87;28.53;;;;;;;;;;4993935;28;20493;-68
2021/01/29 09:46:33;;;;;;;39.77;28.47;;;;;;;;;;4989699;28;20042;-68
2021/01/29 09:49:00;;;;;;;42.87;30.17;;;;;;;;;;4993636;28;20479;-68
2021/01/29 09:51:29;;;;;;;44.00;30.03;;;;;;;;;;4994056;28;20038;-68
2021/01/29 09:54:19;;;;;;;75.83;54.27;;;;;;;;;;4994137;28;20411;-67
2021/01/29 09:56:50;;;;;;;91.47;67.03;;;;;;;;;;4993778;28;20054;-67
2021/01/29 09:59:19;;;;;;;67.17;49.67;;;;;;;;;;4993589;28;20061;-68
2021/01/29 10:01:48;;;;;;;53.40;40.70;;;;;;;;;;4993394;28;20057;-67
2021/01/29 10:04:34;;;;;;;53.40;38.93;;;;;;;;;;4992921;28;20057;-67
2021/01/29 10:07:02;;;;;;;48.73;38.20;;;;;;;;;;4992112;28;20041;-67
2021/01/29 10:09:39;;;;;;;51.27;34.60;;;;;;;;;;4993468;28;20031;-67
2021/01/29 10:12:11;;;;;;;44.90;33.63;;;;;;;;;;4993517;28;20038;-67
2021/01/29 10:14:43;;;;;;;47.05;35.60;;;;;;;;;;4993529;28;20031;-67
2021/01/29 10:17:16;;;;;;;44.30;35.15;;;;;;;;;;4993500;28;20117;-69
2021/01/29 10:19:42;;;;;;;;;;;;;;;;;;4993884;28;20430;-66
2021/01/29 10:22:08;;;;;;;47.27;32.83;;;;;;;;;;4993536;28;20370;-66
2021/01/29 10:24:39;;;;;;;46.03;34.77;;;;;;;;;;4993651;28;20036;-67
2021/01/29 10:27:31;;;;;;;43.80;31.27;;;;;;;;;;4993564;28;20038;-66
2021/01/29 10:30:09;;;;;;;44.17;33.03;;;;;;;;;;4992018;28;20136;-67
2021/01/29 10:32:36;;;;;;;47.20;31.50;;;;;;;;;;4993583;28;20030;-67
2021/01/29 10:35:21;;;;;;;38.70;27.60;;;;;;;;;;4993657;28;20438;-67
2021/01/29 10:38:08;;;;;;;47.33;32.40;;;;;;;;;;4993440;28;20105;-67
2021/01/29 10:40:34;;;;;;;47.17;36.37;;;;;;;;;;4993215;28;20031;-67
2021/01/29 10:43:15;;;;;;;47.07;35.23;;;;;;;;;;4995107;28;20027;-67
2021/01/29 10:45:58;;;;;;;47.47;36.47;;;;;;;;;;4997122;28;20109;-68
2021/01/29 10:48:27;;;;;;;51.63;40.23;;;;;;;;;;4996852;28;20106;-67
2021/01/29 10:50:56;;;;;;;48.63;37.20;;;;;;;;;;4996918;28;20077;-67
2021/01/29 10:53:24;;;;;;;43.17;32.67;;;;;;;;;;4996449;28;20034;-68
2021/01/29 10:55:50;;;;;;;46.53;32.23;;;;;;;;;;4997004;28;20033;-67
2021/01/29 10:58:26;;;;;;;38.03;30.00;;;;;;;;;;4996736;28;20065;-67
2021/01/29 11:00:53;;;;;;;38.80;30.43;;;;;;;;;;4996737;28;20034;-68
2021/01/29 11:03:21;;;;;;;37.43;28.30;;;;;;;;;;4996858;28;20113;-67
2021/01/29 11:05:48;;;;;;;40.83;28.33;;;;;;;;;;4996533;28;20101;-67
2021/01/29 11:08:25;;;;;;;35.47;26.23;;;;;;;;;;4996304;28;20057;-67
2021/01/29 11:11:01;;;;;;;39.10;29.00;;;;;;;;;;4996497;28;20068;-67
2021/01/29 11:13:32;;;;;;;36.83;26.90;;;;;;;;;;4996555;28;20379;-67
2021/01/29 11:16:01;;;;;;;48.07;31.97;;;;;;;;;;4996318;28;20061;-68
2021/01/29 11:18:37;;;;;;;54.53;40.43;;;;;;;;;;4994063;28;20420;-69
2021/01/29 11:21:24;;;;;;;43.17;33.33;;;;;;;;;;4993577;28;20042;-68
2021/01/29 11:23:58;;;;;;;46.60;35.73;;;;;;;;;;4994461;28;20117;-69
2021/01/29 11:26:35;;;;;;;49.77;37.03;;;;;;;;;;4995942;28;20101;-68
2021/01/29 11:29:16;;;;;;;44.77;34.47;;;;;;;;;;4995864;28;20026;-68
2021/01/29 11:31:44;;;;;;;40.30;33.03;;;;;;;;;;4995825;28;20096;-70
2021/01/29 11:34:14;;;;;;;43.57;31.80;;;;;;;;;;4996144;28;20029;-69
2021/01/29 11:36:47;;;;;;;41.60;32.13;;;;;;;;;;4995931;28;20053;-69
2021/01/29 11:39:13;;;;;;;;;;;;;;;;;;4994603;28;20042;-68
2021/01/29 11:41:51;;;;;;;44.97;32.17;;;;;;;;;;4993573;28;19910;-68
2021/01/29 11:44:24;;;;;;;41.10;30.23;;;;;;;;;;4994343;28;20125;-68
2021/01/29 11:47:09;;;;;;;41.70;32.53;;;;;;;;;;4995827;28;20493;-68
2021/01/29 11:49:39;;;;;;;43.17;31.60;;;;;;;;;;4996142;28;20594;-68
2021/01/29 11:52:12;;;;;;;43.10;30.70;;;;;;;;;;4995573;28;20507;-68
2021/01/29 11:54:37;;;;;;;;;;;;;;;;;;4994158;28;20183;-68
2021/01/29 11:57:09;;;;;;;41.90;29.83;;;;;;;;;;4995636;28;20000;-68
2021/01/29 11:59:38;;;;;;;46.65;30.23;;;;;;;;;;4995744;28;20126;-68
2021/01/29 12:02:16;;;;;;;42.07;32.13;;;;;;;;;;4995704;28;20498;-68
2021/01/29 12:04:52;;;;;;;42.40;30.60;;;;;;;;;;4995872;28;20037;-68
2021/01/29 12:07:29;;;;;;;43.43;31.83;;;;;;;;;;4995585;28;20026;-68
2021/01/29 12:10:06;;;;;;;36.30;28.63;;;;;;;;;;4995343;28;20053;-68
2021/01/29 12:12:35;;;;;;;36.03;28.67;;;;;;;;;;4995449;28;20038;-68
2021/01/29 12:15:09;;;;;;;38.63;28.77;;;;;;;;;;4994103;28;20026;-68
2021/01/29 12:17:36;;;;;;;40.20;30.90;;;;;;;;;;4993772;28;20026;-69
2021/01/29 12:20:06;;;;;;;43.83;32.10;;;;;;;;;;4994446;28;20038;-68
2021/01/29 12:22:50;;;;;;;38.30;29.53;;;;;;;;;;4995622;28;20037;-68
2021/01/29 12:25:19;;;;;;;40.03;29.70;;;;;;;;;;4995567;28;20038;-68
2021/01/29 12:27:51;;;;;;;37.37;28.27;;;;;;;;;;4995081;28;20093;-68
2021/01/29 12:30:28;;;;;;;39.63;30.27;;;;;;;;;;4995090;28;20030;-68
2021/01/29 12:33:03;;;;;;;40.43;29.50;;;;;;;;;;4994985;28;20069;-68
2021/01/29 12:35:39;;;;;;;39.13;30.17;;;;;;;;;;4995074;28;20022;-68
2021/01/29 12:38:05;;;;;;;40.47;30.23;;;;;;;;;;4992164;28;20033;-68
2021/01/29 12:40:31;;;;;;;49.70;37.87;;;;;;;;;;4992295;28;20382;-69
2021/01/29 12:43:01;;;;;;;57.33;38.30;;;;;;;;;;4993587;28;20025;-68
2021/01/29 12:45:38;;;;;;;56.67;34.83;;;;;;;;;;4994617;28;20023;-68
2021/01/29 12:48:04;;;;;;;45.03;33.33;;;;;;;;;;4994731;28;20434;-68
2021/01/29 12:50:36;;;;;;;40.47;31.57;;;;;;;;;;4994828;28;20048;-68
2021/01/29 12:53:22;;;;;;;41.15;32.08;;;;;;;;;;4993571;28;20061;-68
2021/01/29 12:55:48;;;;;;;39.17;30.63;;;;;;;;;;4991512;28;20561;-68
2021/01/29 12:58:16;;;;;;;49.37;36.17;;;;;;;;;;4991720;28;20053;-67
2021/01/29 13:00:44;;;;;;;71.87;55.00;;;;;;;;;;4993929;28;20025;-67
2021/01/29 13:03:13;;;;;;;74.47;55.77;;;;;;;;;;4994663;28;20030;-67
2021/01/29 13:05:39;;;;;;;78.53;57.57;;;;;;;;;;4993853;28;20030;-68
2021/01/29 13:08:24;;;;;;;75.33;56.50;;;;;;;;;;4994175;28;20479;-68
2021/01/29 13:10:59;;;;;;;68.80;52.17;;;;;;;;;;4994302;28;20549;-69
2021/01/29 13:13:48;;;;;;;65.97;49.33;;;;;;;;;;4994371;28;20053;-69
2021/01/29 13:16:21;;;;;;;61.50;47.57;;;;;;;;;;4991412;28;20088;-68
2021/01/29 13:18:54;;;;;;;77.00;56.10;;;;;;;;;;4994512;28;20108;-68
2021/01/29 13:21:32;;;;;;;73.37;56.23;;;;;;;;;;4994043;28;20050;-69
2021/01/29 13:23:59;;;;;;;66.77;49.37;;;;;;;;;;4994156;28;20030;-69
2021/01/29 13:26:34;;;;;;;73.43;56.17;;;;;;;;;;4993854;28;20026;-68
2021/01/29 13:29:10;;;;;;;75.17;54.60;;;;;;;;;;4993575;28;20035;-68
2021/01/29 13:31:37;;;;;;;62.07;45.93;;;;;;;;;;4994130;28;20390;-69
2021/01/29 13:34:15;;;;;;;70.67;51.40;;;;;;;;;;4994146;28;20030;-68
2021/01/29 13:36:44;;;;;;;71.77;54.47;;;;;;;;;;4993940;28;20038;-68
2021/01/29 13:39:22;;;;;;;79.33;57.27;;;;;;;;;;4993677;28;20026;-68
2021/01/29 13:41:50;;;;;;;55.87;45.07;;;;;;;;;;4993683;28;20026;-68
2021/01/29 13:44:25;;;;;;;55.60;43.53;;;;;;;;;;4993942;28;20034;-68
2021/01/29 13:46:51;;;;;;;56.00;44.60;;;;;;;;;;4993983;28;20030;-69
2021/01/29 13:49:32;;;;;;;57.93;42.83;;;;;;;;;;4993867;28;20073;-68
2021/01/29 13:51:59;;;;;;;51.10;40.20;;;;;;;;;;4990774;28;20042;-68
2021/01/29 13:54:32;;;;;;;60.13;44.43;;;;;;;;;;4990756;28;20543;-68
2021/01/29 13:57:02;;;;;;;52.27;42.07;;;;;;;;;;4993480;28;20442;-68
2021/01/29 13:59:35;;;;;;;51.03;42.17;;;;;;;;;;4993803;28;20027;-66
2021/01/29 14:02:01;;;;;;;;;;;;;;;;;;4994363;28;20049;-69
2021/01/29 14:04:47;;;;;;;48.37;38.50;;;;;;;;;;4993735;28;19929;-68
2021/01/29 14:07:13;;;;;;;50.13;40.37;;;;;;;;;;4993404;28;20088;-69
2021/01/29 14:09:40;;;;;;;52.10;40.70;;;;;;;;;;4993802;28;20026;-66
2021/01/29 14:12:18;;;;;;;55.97;44.17;;;;;;;;;;4993417;28;20042;-68
2021/01/29 14:15:03;;;;;;;59.23;43.83;;;;;;;;;;4990838;28;20437;-68
2021/01/29 14:17:32;;;;;;;56.63;44.47;;;;;;;;;;4991065;28;20066;-69
2021/01/29 14:20:19;;;;;;;63.07;45.83;;;;;;;;;;4994285;28;20497;-69
2021/01/29 14:22:45;;;;;;;67.03;49.07;;;;;;;;;;4995608;28;20077;-68
2021/01/29 14:25:31;;;;;;;52.67;42.13;;;;;;;;;;4995271;28;20022;-68
2021/01/29 14:28:00;;;;;;;53.40;41.43;;;;;;;;;;4995698;28;20038;-68
2021/01/29 14:30:37;;;;;;;53.17;43.67;;;;;;;;;;4996740;28;20042;-68
2021/01/29 14:33:06;;;;;;;51.57;40.30;;;;;;;;;;4996769;28;20026;-68
2021/01/29 14:35:48;;;;;;;57.40;43.67;;;;;;;;;;4996023;28;20046;-68
2021/01/29 14:38:22;;;;;;;76.27;54.70;;;;;;;;;;4996738;28;20053;-68
2021/01/29 14:40:48;;;;;;;77.97;54.57;;;;;;;;;;4994055;28;20416;-67
2021/01/29 14:43:14;;;;;;;69.50;51.33;;;;;;;;;;4994270;28;20061;-67
2021/01/29 14:45:46;;;;;;;69.03;50.90;;;;;;;;;;4996734;28;20029;-68
2021/01/29 14:48:18;;;;;;;69.20;53.10;;;;;;;;;;4995741;28;20492;-68
2021/01/29 14:51:07;;;;;;;59.10;45.58;;;3.20;68.10;;;;;;4994972;28;20493;-67
2021/01/29 14:53:52;;;;;;;66.13;49.30;;;5.00;90.10;;;;;;4996213;28;20478;-68
2021/01/29 14:56:27;;;;;;;64.87;47.40;;;4.90;90.20;;;;;;4996370;28;20039;-65